createdAt,value
2018-12-30T00:24:01.758Z,100957.19
2018-12-30T00:41:56.607Z,100991.80
2018-12-30T00:52:26.851Z,101017.83
2018-12-30T00:57:48.684Z,101002.72
2018-12-30T01:00:04.706Z,101026.91
2018-12-30T01:02:32.524Z,101043.59
2018-12-30T01:12:47.662Z,101047.01
2018-12-30T01:28:06.925Z,101087.05
2018-12-30T01:40:52.115Z,101123.22
2018-12-30T01:46:02.928Z,101122.38
2018-12-30T01:51:00.720Z,101141.33
2018-12-30T02:16:43.056Z,101171.34
2018-12-30T02:19:23.129Z,101169.70
2018-12-30T02:29:10.197Z,101196.44
2018-12-30T02:59:33.364Z,101215.55
2018-12-30T03:03:36.669Z,101205.02
2018-12-30T03:04:30.977Z,101202.91
2018-12-30T03:06:58.718Z,101211.86
2018-12-30T03:09:26.802Z,101211.48
2018-12-30T03:11:54.631Z,101211.48
2018-12-30T03:14:22.432Z,101219.81
2018-12-30T03:16:50.487Z,101224.34
2018-12-30T03:19:18.337Z,101228.32
2018-12-30T03:21:46.137Z,101228.70
2018-12-30T03:24:14.217Z,101226.83
2018-12-30T03:26:43.149Z,101226.83
2018-12-30T03:29:10.869Z,101218.88
2018-12-30T03:31:38.699Z,101247.11
2018-12-30T03:34:06.765Z,101250.09
2018-12-30T03:36:34.682Z,101250.09
2018-12-30T03:39:02.489Z,101245.56
2018-12-30T03:41:30.323Z,101245.50
2018-12-30T03:43:58.448Z,101245.50
2018-12-30T03:46:26.216Z,101246.44
2018-12-30T03:48:54.025Z,101250.02
2018-12-30T03:51:21.789Z,101250.02
2018-12-30T03:53:49.530Z,101248.37
2018-12-30T03:56:17.316Z,101243.61
2018-12-30T03:58:45.409Z,101247.27
2018-12-30T04:01:15.999Z,101250.30
2018-12-30T04:03:43.713Z,101248.11
2018-12-30T04:06:11.819Z,101248.11
2018-12-30T04:08:39.579Z,101251.17
2018-12-30T04:11:07.377Z,101245.55
2018-12-30T04:13:35.494Z,101257.61
2018-12-30T04:16:03.234Z,101254.95
2018-12-30T04:18:31.077Z,101254.95
2018-12-30T04:21:03.091Z,101260.25
2018-12-30T04:23:28.309Z,101259.86
2018-12-30T04:25:56.130Z,101265.27
2018-12-30T04:28:23.930Z,101269.75
2018-12-30T04:30:51.675Z,101276.05
2018-12-30T04:33:19.457Z,101277.80
2018-12-30T04:35:47.236Z,101280.84
2018-12-30T04:38:15.753Z,101290.56
2018-12-30T04:40:43.478Z,101287.08
2018-12-30T04:43:11.273Z,101287.08
2018-12-30T04:45:39.083Z,101299.39
2018-12-30T04:48:07.081Z,101304.60
2018-12-30T04:50:35.334Z,101308.19
2018-12-30T04:53:03.175Z,101308.19
2018-12-30T04:55:30.907Z,101311.71
2018-12-30T04:58:01.737Z,101308.13
2018-12-30T05:00:29.569Z,101308.13
2018-12-30T05:02:57.294Z,101320.05
2018-12-30T05:05:25.421Z,101320.05
2018-12-30T05:07:53.467Z,101323.97
2018-12-30T05:10:21.274Z,101327.08
2018-12-30T05:12:50.917Z,101333.70
2018-12-30T05:15:18.712Z,101338.55
2018-12-30T05:17:46.805Z,101337.13
2018-12-30T05:20:15.458Z,101351.66
2018-12-30T05:22:43.184Z,101354.64
2018-12-30T05:25:11.010Z,101354.64
2018-12-30T05:27:38.732Z,101349.45
2018-12-30T05:30:06.557Z,101349.45
2018-12-30T05:32:34.804Z,101335.36
2018-12-30T05:35:02.558Z,101338.07
2018-12-30T05:37:30.396Z,101338.07
2018-12-30T05:39:58.486Z,101334.63
2018-12-30T05:42:26.251Z,101337.83
2018-12-30T05:44:54.066Z,101325.63
2018-12-30T05:47:22.288Z,101331.08
2018-12-30T05:49:50.503Z,101314.13
2018-12-30T05:52:18.250Z,101314.13
2018-12-30T05:54:48.880Z,101329.63
2018-12-30T05:57:16.700Z,101329.63
2018-12-30T05:59:44.418Z,101349.52
2018-12-30T06:02:12.462Z,101357.41
2018-12-30T06:04:40.294Z,101357.41
2018-12-30T06:07:08.122Z,101381.56
2018-12-30T06:09:35.872Z,101381.56
2018-12-30T06:12:03.891Z,101383.27
2018-12-30T06:14:31.773Z,101383.27
2018-12-30T06:16:59.623Z,101356.77
2018-12-30T06:19:27.657Z,101377.52
2018-12-30T06:21:55.477Z,101357.64
2018-12-30T06:24:23.305Z,101372.83
2018-12-30T06:26:51.299Z,101378.12
2018-12-30T06:29:19.109Z,101378.12
2018-12-30T06:31:46.852Z,101371.44
2018-12-30T06:34:15.106Z,101380.23
2018-12-30T06:36:45.772Z,101410.66
2018-12-30T06:39:13.896Z,101408.40
2018-12-30T06:41:41.687Z,101408.40
2018-12-30T06:44:09.762Z,101416.30
2018-12-30T06:46:37.486Z,101416.30
2018-12-30T06:49:05.293Z,101396.80
2018-12-30T06:51:33.327Z,101406.48
2018-12-30T06:54:01.176Z,101402.50
2018-12-30T06:56:29.384Z,101402.50
2018-12-30T06:58:57.229Z,101424.09
2018-12-30T07:01:25.289Z,101430.73
2018-12-30T07:03:53.042Z,101425.81
2018-12-30T07:06:20.856Z,101425.81
2018-12-30T07:08:48.713Z,101444.86
2018-12-30T07:11:16.837Z,101443.13
2018-12-30T07:13:44.627Z,101433.37
2018-12-30T07:16:12.790Z,101442.66
2018-12-30T07:18:40.806Z,101448.94
2018-12-30T07:21:11.062Z,101448.94
2018-12-30T07:23:39.272Z,101449.81
2018-12-30T07:26:07.403Z,101455.13
2018-12-30T07:28:38.365Z,101450.21
2018-12-30T07:31:06.118Z,101450.21
2018-12-30T07:33:36.709Z,101445.30
2018-12-30T07:36:04.529Z,101447.11
2018-12-30T07:38:35.311Z,101447.11
2018-12-30T07:41:03.168Z,101451.42
2018-12-30T07:43:30.917Z,101451.42
2018-12-30T07:46:01.509Z,101442.98
2018-12-30T07:48:29.569Z,101452.61
2018-12-30T07:50:57.361Z,101452.61
2018-12-30T07:53:25.114Z,101442.88
2018-12-30T07:55:53.182Z,101442.88
2018-12-30T07:58:21.028Z,101446.31
2018-12-30T08:00:48.796Z,101446.31
2018-12-30T08:03:16.899Z,101445.83
2018-12-30T08:05:44.722Z,101452.84
2018-12-30T08:08:18.759Z,101452.84
2018-12-30T08:10:46.949Z,101464.33
2018-12-30T08:13:14.756Z,101471.83
2018-12-30T08:15:42.629Z,101471.83
2018-12-30T08:18:10.442Z,101477.53
2018-12-30T08:20:38.473Z,101477.53
2018-12-30T08:23:06.278Z,101480.57
2018-12-30T08:25:34.118Z,101479.19
2018-12-30T08:28:02.630Z,101479.19
2018-12-30T08:30:30.844Z,101481.36
2018-12-30T08:32:58.564Z,101484.01
2018-12-30T08:35:30.405Z,101474.28
2018-12-30T08:37:58.197Z,101480.82
2018-12-30T08:40:26.890Z,101478.17
2018-12-30T08:42:55.041Z,101478.17
2018-12-30T08:45:23.042Z,101474.19
2018-12-30T08:47:50.859Z,101475.94
2018-12-30T08:50:18.901Z,101475.94
2018-12-30T08:52:46.683Z,101482.81
2018-12-30T08:55:14.584Z,101482.81
2018-12-30T08:57:43.092Z,101485.32
2018-12-30T09:00:12.787Z,101487.52
2018-12-30T09:02:42.848Z,101483.09
2018-12-30T09:05:10.930Z,101483.09
2018-12-30T09:07:38.746Z,101489.73
2018-12-30T09:10:06.603Z,101494.48
2018-12-30T09:12:34.722Z,101493.11
2018-12-30T09:15:02.472Z,101492.51
2018-12-30T09:17:39.763Z,101491.88
2018-12-30T09:20:07.522Z,101491.27
2018-12-30T09:22:35.350Z,101492.28
2018-12-30T09:25:03.128Z,101490.80
2018-12-30T09:27:33.579Z,101490.80
2018-12-30T09:30:06.089Z,101490.29
2018-12-30T09:32:33.854Z,101501.54
2018-12-30T09:35:01.635Z,101479.53
2018-12-30T09:37:29.731Z,101479.53
2018-12-30T09:39:57.567Z,101471.23
2018-12-30T09:42:29.646Z,101489.23
2018-12-30T09:44:59.919Z,101489.23
2018-12-30T09:47:27.758Z,101479.66
2018-12-30T09:49:55.529Z,101488.83
2018-12-30T09:52:25.007Z,101494.44
2018-12-30T09:54:52.827Z,101494.64
2018-12-30T09:57:20.528Z,101494.64
2018-12-30T09:59:48.622Z,101503.72
2018-12-30T10:02:16.786Z,101490.22
2018-12-30T10:04:44.686Z,101497.58
2018-12-30T10:07:12.777Z,101497.58
2018-12-30T10:09:40.551Z,101499.73
2018-12-30T10:12:11.414Z,101509.23
2018-12-30T10:14:39.464Z,101513.11
2018-12-30T10:17:16.636Z,101521.57
2018-12-30T10:19:44.432Z,101526.88
2018-12-30T10:22:12.454Z,101526.88
2018-12-30T10:24:40.234Z,101530.94
2018-12-30T10:27:08.092Z,101538.58
2018-12-30T10:29:36.199Z,101538.25
2018-12-30T10:32:03.913Z,101539.41
2018-12-30T10:34:31.792Z,101539.41
2018-12-30T10:36:59.835Z,101536.97
2018-12-30T10:39:28.018Z,101530.94
2018-12-30T10:41:57.214Z,101524.58
2018-12-30T10:44:26.200Z,101529.72
2018-12-30T10:46:56.527Z,101527.28
2018-12-30T10:49:24.421Z,101523.36
2018-12-30T10:51:52.472Z,101511.57
2018-12-30T10:54:23.290Z,101511.57
2018-12-30T10:56:51.127Z,101499.95
2018-12-30T10:59:19.210Z,101501.67
2018-12-30T11:01:49.021Z,101496.81
2018-12-30T11:04:18.425Z,101496.81
2018-12-30T11:06:46.434Z,101496.30
2018-12-30T11:09:14.245Z,101502.29
2018-12-30T11:11:41.990Z,101497.47
2018-12-30T11:14:10.157Z,101492.22
2018-12-30T11:16:37.911Z,101497.53
2018-12-30T11:19:05.761Z,101495.36
2018-12-30T11:21:33.912Z,101495.66
2018-12-30T11:24:08.330Z,101495.66
2018-12-30T11:26:31.013Z,101487.78
2018-12-30T11:29:00.165Z,101499.46
2018-12-30T11:31:28.135Z,101499.46
2018-12-30T11:33:56.036Z,101497.75
2018-12-30T11:36:28.440Z,101489.84
2018-12-30T11:38:56.189Z,101486.34
2018-12-30T11:41:24.074Z,101475.95
2018-12-30T11:43:52.165Z,101475.95
2018-12-30T11:46:21.336Z,101483.47
2018-12-30T11:48:50.258Z,101483.47
2018-12-30T11:51:18.328Z,101482.14
2018-12-30T11:53:46.070Z,101482.59
2018-12-30T11:56:13.923Z,101479.88
2018-12-30T11:58:41.970Z,101482.92
2018-12-30T12:01:09.786Z,101485.03
2018-12-30T12:03:40.093Z,101480.53
2018-12-30T12:06:14.284Z,101480.92
2018-12-30T12:08:44.143Z,101480.92
2018-12-30T12:11:11.929Z,101478.33
2018-12-30T12:13:41.088Z,101478.33
2018-12-30T12:16:10.027Z,101467.92
2018-12-30T12:18:37.764Z,101467.92
2018-12-30T12:21:09.614Z,101456.30
2018-12-30T12:23:40.418Z,101452.65
2018-12-30T12:26:08.182Z,101451.23
2018-12-30T12:28:39.323Z,101446.79
2018-12-30T12:31:07.180Z,101449.05
2018-12-30T12:33:35.333Z,101449.05
2018-12-30T12:36:06.563Z,101444.20
2018-12-30T12:38:34.303Z,101453.16
2018-12-30T12:41:05.117Z,101460.35
2018-12-30T12:43:32.800Z,101465.83
2018-12-30T12:46:02.109Z,101465.83
2018-12-30T12:48:31.714Z,101463.30
2018-12-30T12:51:05.557Z,101462.39
2018-12-30T12:53:33.340Z,101473.01
2018-12-30T12:56:04.069Z,101473.01
2018-12-30T12:58:31.927Z,101468.60
2018-12-30T13:00:59.667Z,101468.15
2018-12-30T13:03:27.905Z,101467.37
2018-12-30T13:05:55.666Z,101467.37
2018-12-30T13:08:25.138Z,101460.80
2018-12-30T13:10:55.862Z,101460.80
2018-12-30T13:13:28.166Z,101456.36
2018-12-30T13:16:03.298Z,101469.70
2018-12-30T13:18:28.324Z,101469.70
2018-12-30T13:20:58.239Z,101479.53
2018-12-30T13:23:29.194Z,101479.53
2018-12-30T13:25:56.816Z,101481.31
2018-12-30T13:28:31.340Z,101480.92
2018-12-30T13:31:01.125Z,101492.39
2018-12-30T13:33:36.181Z,101492.81
2018-12-30T13:36:07.946Z,101492.88
2018-12-30T13:38:35.536Z,101492.88
2018-12-30T13:41:03.394Z,101491.55
2018-12-30T13:43:31.175Z,101487.95
2018-12-30T13:46:25.853Z,101489.12
2018-12-30T13:48:53.607Z,101489.94
2018-12-30T13:51:21.738Z,101496.42
2018-12-30T13:53:49.514Z,101490.66
2018-12-30T13:56:20.409Z,101490.66
2018-12-30T13:58:51.338Z,101482.14
2018-12-30T14:01:19.046Z,101482.14
2018-12-30T14:03:46.882Z,101477.77
2018-12-30T14:06:14.663Z,101472.30
2018-12-30T14:08:42.464Z,101472.30
2018-12-30T14:11:10.511Z,101465.53
2018-12-30T14:13:38.318Z,101465.53
2018-12-30T14:16:08.406Z,101463.66
2018-12-30T14:18:37.931Z,101470.30
2018-12-30T14:21:05.799Z,101484.52
2018-12-30T14:23:34.900Z,101483.31
2018-12-30T14:26:03.024Z,101493.16
2018-12-30T14:28:30.765Z,101487.06
2018-12-30T14:30:58.522Z,101477.50
2018-12-30T14:33:26.613Z,101476.72
2018-12-30T14:35:54.432Z,101476.72
2018-12-30T14:38:22.272Z,101465.77
2018-12-30T14:40:50.298Z,101465.77
2018-12-30T14:43:18.098Z,101467.59
2018-12-30T14:45:45.847Z,101470.24
2018-12-30T14:48:16.603Z,101476.06
2018-12-30T14:50:44.409Z,101481.92
2018-12-30T14:53:19.076Z,101481.92
2018-12-30T14:55:41.909Z,101479.42
2018-12-30T14:58:09.730Z,101475.05
2018-12-30T15:00:37.540Z,101475.05
2018-12-30T15:03:05.618Z,101467.15
2018-12-30T15:05:33.348Z,101475.23
2018-12-30T15:08:01.560Z,101469.53
2018-12-30T15:10:29.644Z,101470.47
2018-12-30T15:13:00.843Z,101471.02
2018-12-30T15:15:28.604Z,101468.03
2018-12-30T15:17:58.782Z,101482.39
2018-12-30T15:20:26.590Z,101482.39
2018-12-30T15:22:58.240Z,101497.50
2018-12-30T15:25:27.527Z,101494.22
2018-12-30T15:27:55.216Z,101476.30
2018-12-30T15:30:23.074Z,101479.47
2018-12-30T15:32:56.209Z,101479.47
2018-12-30T15:35:23.996Z,101479.34
2018-12-30T15:37:51.824Z,101479.34
2018-12-30T15:40:19.873Z,101487.72
2018-12-30T15:42:49.954Z,101490.16
2018-12-30T15:45:17.728Z,101490.16
2018-12-30T15:47:48.956Z,101488.31
2018-12-30T15:50:16.709Z,101469.16
2018-12-30T15:52:44.504Z,101469.16
2018-12-30T15:55:19.374Z,101465.94
2018-12-30T15:57:51.135Z,101460.35
2018-12-30T16:00:19.130Z,101453.73
2018-12-30T16:02:49.653Z,101453.73
2018-12-30T16:05:18.665Z,101443.84
2018-12-30T16:07:56.199Z,101443.84
2018-12-30T16:10:33.553Z,101434.71
2018-12-30T16:13:07.765Z,101433.00
2018-12-30T16:15:49.412Z,101430.88
2018-12-30T16:18:20.214Z,101440.07
2018-12-30T16:20:50.300Z,101443.98
2018-12-30T16:23:18.081Z,101443.98
2018-12-30T16:25:57.412Z,101441.34
2018-12-30T16:28:25.207Z,101441.28
2018-12-30T16:30:53.325Z,101441.28
2018-12-30T16:33:23.969Z,101448.75
2018-12-30T16:35:51.732Z,101451.80
2018-12-30T16:38:19.502Z,101451.80
2018-12-30T16:40:49.795Z,101447.31
2018-12-30T16:43:17.851Z,101459.16
2018-12-30T16:45:45.642Z,101450.75
2018-12-30T16:48:15.269Z,101450.75
2018-12-30T16:50:45.389Z,101452.86
2018-12-30T16:53:15.541Z,101452.80
2018-12-30T16:55:46.460Z,101453.14
2018-12-30T16:58:15.876Z,101447.84
2018-12-30T17:00:43.911Z,101444.70
2018-12-30T17:03:12.080Z,101443.33
2018-12-30T17:05:41.172Z,101438.41
2018-12-30T17:08:09.019Z,101438.81
2018-12-30T17:10:36.835Z,101445.32
2018-12-30T17:13:04.931Z,101445.32
2018-12-30T17:15:32.763Z,101444.30
2018-12-30T17:18:00.568Z,101439.87
2018-12-30T17:20:30.366Z,101442.38
2018-12-30T17:23:02.244Z,101442.38
2018-12-30T17:25:27.561Z,101444.97
2018-12-30T17:27:55.668Z,101443.25
2018-12-30T17:30:23.460Z,101433.91
2018-12-30T17:32:51.286Z,101444.13
2018-12-30T17:35:23.782Z,101435.30
2018-12-30T17:37:52.488Z,101441.59
2018-12-30T17:40:20.363Z,101440.13
2018-12-30T17:42:48.318Z,101433.71
2018-12-30T17:45:16.218Z,101433.37
2018-12-30T17:48:03.023Z,101435.69
2018-12-30T17:50:33.863Z,101439.75
2018-12-30T17:53:01.616Z,101436.28
2018-12-30T17:55:33.525Z,101436.28
2018-12-30T17:58:01.687Z,101428.88
2018-12-30T18:00:30.735Z,101428.88
2018-12-30T18:03:00.122Z,101424.90
2018-12-30T18:05:28.136Z,101427.55
2018-12-30T18:07:57.709Z,101433.39
2018-12-30T18:10:27.641Z,101438.74
2018-12-30T18:12:57.853Z,101437.81
2018-12-30T18:15:28.190Z,101440.47
2018-12-30T18:17:55.930Z,101442.66
2018-12-30T18:20:25.030Z,101446.64
2018-12-30T18:22:55.554Z,101450.16
2018-12-30T18:25:24.518Z,101450.16
2018-12-30T18:27:53.912Z,101446.98
2018-12-30T18:30:21.755Z,101450.47
2018-12-30T18:32:49.522Z,101450.47
2018-12-30T18:35:17.596Z,101461.07
2018-12-30T18:37:45.360Z,101461.07
2018-12-30T18:40:13.183Z,101455.77
2018-12-30T18:42:50.343Z,101456.16
2018-12-30T18:45:18.139Z,101466.71
2018-12-30T18:47:48.324Z,101456.11
2018-12-30T18:50:16.419Z,101460.08
2018-12-30T18:52:46.227Z,101462.68
2018-12-30T18:55:24.076Z,101462.68
2018-12-30T18:57:52.187Z,101460.48
2018-12-30T19:00:21.117Z,101460.48
2018-12-30T19:02:48.839Z,101456.98
2018-12-30T19:05:19.336Z,101452.92
2018-12-30T19:07:46.377Z,101457.77
2018-12-30T19:10:14.203Z,101441.33
2018-12-30T19:12:42.269Z,101453.14
2018-12-30T19:15:10.124Z,101453.14
2018-12-30T19:17:37.882Z,101448.62
2018-12-30T19:20:06.450Z,101445.09
2018-12-30T19:22:34.251Z,101445.09
2018-12-30T19:25:04.145Z,101449.41
2018-12-30T19:27:33.251Z,101445.83
2018-12-30T19:30:01.117Z,101445.23
2018-12-30T19:32:30.604Z,101432.80
2018-12-30T19:34:58.932Z,101430.14
2018-12-30T19:37:26.742Z,101430.92
2018-12-30T19:39:57.266Z,101430.44
2018-12-30T19:42:34.370Z,101430.44
2018-12-30T19:45:04.960Z,101439.61
2018-12-30T19:47:34.299Z,101436.86
2018-12-30T19:50:02.088Z,101447.02
2018-12-30T19:52:29.951Z,101447.02
2018-12-30T19:54:57.965Z,101447.41
2018-12-30T19:57:25.735Z,101452.66
2018-12-30T19:59:53.586Z,101453.50
2018-12-30T20:02:21.701Z,101450.40
2018-12-30T20:04:50.564Z,101442.77
2018-12-30T20:07:19.997Z,101442.77
2018-12-30T20:09:47.860Z,101444.10
2018-12-30T20:12:18.084Z,101444.10
2018-12-30T20:14:46.203Z,101447.69
2018-12-30T20:17:18.329Z,101446.87
2018-12-30T20:19:49.164Z,101446.87
2018-12-30T20:22:17.189Z,101438.91
2018-12-30T20:24:45.011Z,101442.05
2018-12-30T20:27:13.036Z,101434.16
2018-12-30T20:29:41.085Z,101434.16
2018-12-30T20:32:08.925Z,101428.85
2018-12-30T20:34:37.071Z,101423.55
2018-12-30T20:37:05.103Z,101427.52
2018-12-30T20:39:32.956Z,101423.55
2018-12-30T20:42:00.745Z,101415.20
2018-12-30T20:44:32.187Z,101419.57
2018-12-30T20:46:59.998Z,101422.22
2018-12-30T20:49:27.791Z,101412.94
2018-12-30T20:51:55.879Z,101412.94
2018-12-30T20:54:23.707Z,101406.31
2018-12-30T20:56:51.989Z,101394.38
2018-12-30T20:59:20.032Z,101394.38
2018-12-30T21:01:49.765Z,101392.59
2018-12-30T21:04:17.600Z,101392.59
2018-12-30T21:06:45.611Z,101385.03
2018-12-30T21:09:17.554Z,101388.14
2018-12-30T21:11:48.428Z,101384.16
2018-12-30T21:14:16.197Z,101391.18
2018-12-30T21:16:44.028Z,101387.20
2018-12-30T21:19:15.119Z,101392.06
2018-12-30T21:21:42.973Z,101391.18
2018-12-30T21:24:10.744Z,101391.18
2018-12-30T21:26:45.385Z,101384.88
2018-12-30T21:29:09.832Z,101384.88
2018-12-30T21:31:37.569Z,101384.05
2018-12-30T21:34:08.864Z,101388.80
2018-12-30T21:36:36.645Z,101388.80
2018-12-30T21:39:07.217Z,101383.50
2018-12-30T21:41:35.251Z,101378.64
2018-12-30T21:44:03.450Z,101378.64
2018-12-30T21:46:32.842Z,101377.74
2018-12-30T21:49:13.011Z,101377.26
2018-12-30T21:51:53.004Z,101373.22
2018-12-30T21:54:21.014Z,101375.33
2018-12-30T21:56:54.770Z,101375.33
2018-12-30T21:59:20.960Z,101370.90
2018-12-30T22:01:48.923Z,101376.59
2018-12-30T22:04:16.652Z,101380.09
2018-12-30T22:06:46.287Z,101380.09
2018-12-30T22:09:15.891Z,101382.73
2018-12-30T22:11:47.505Z,101382.29
2018-12-30T22:14:19.126Z,101391.09
2018-12-30T22:16:47.238Z,101393.62
2018-12-30T22:19:15.050Z,101390.03
2018-12-30T22:21:42.774Z,101384.66
2018-12-30T22:24:13.816Z,101384.66
2018-12-30T22:26:41.544Z,101390.69
2018-12-30T22:29:24.428Z,101395.06
2018-12-30T22:31:52.221Z,101395.06
2018-12-30T22:34:25.561Z,101395.91
2018-12-30T22:36:53.602Z,101393.67
2018-12-30T22:39:22.538Z,101390.53
2018-12-30T22:41:56.672Z,101390.53
2018-12-30T22:44:24.789Z,101393.13
2018-12-30T22:46:52.525Z,101392.64
2018-12-30T22:49:23.200Z,101400.54
2018-12-30T22:51:51.249Z,101391.26
2018-12-30T22:54:21.656Z,101391.26
2018-12-30T22:56:49.416Z,101397.34
2018-12-30T22:59:29.063Z,101397.34
2018-12-30T23:01:59.586Z,101400.38
2018-12-30T23:04:30.260Z,101399.00
2018-12-30T23:06:59.800Z,101399.00
2018-12-30T23:09:29.179Z,101391.91
2018-12-30T23:12:01.688Z,101383.02
2018-12-30T23:14:28.457Z,101386.48
2018-12-30T23:16:59.994Z,101385.09
2018-12-30T23:19:31.223Z,101387.69
2018-12-30T23:21:59.073Z,101387.69
2018-12-30T23:24:27.187Z,101392.06
2018-12-30T23:26:56.491Z,101387.59
2018-12-30T23:29:24.217Z,101391.35
2018-12-30T23:31:59.563Z,101391.35
2018-12-30T23:34:27.348Z,101392.16
2018-12-30T23:36:55.178Z,101392.45
2018-12-30T23:39:22.900Z,101392.45
2018-12-30T23:41:50.722Z,101396.77
2018-12-30T23:44:18.509Z,101396.77
2018-12-30T23:46:46.263Z,101398.88
2018-12-30T23:49:22.367Z,101396.22
2018-12-30T23:51:50.200Z,101398.36
2018-12-30T23:54:18.298Z,101394.77
2018-12-30T23:56:46.019Z,101405.32
2018-12-30T23:59:13.821Z,101402.18
